Time,TemperatureF,DewpointF,PressureIn,WindDirection,WindDirectionDegrees,WindSpeedMPH,WindSpeedGustMPH,Humidity,HourlyPrecipIn,Conditions,Clouds,dailyrainin,SoftwareType,DateUTC
2013-06-07 00:04:00,59.0,-99.9,0.00,SE,127,7.0,7.0,-999,0.02,,,-99.99,,2013-06-07 05:04:00,
2013-06-07 00:09:00,59.0,-99.9,0.00,SE,127,6.0,7.0,-999,0.02,,,-99.99,,2013-06-07 05:09:00,
2013-06-07 00:14:00,59.0,-99.9,0.00,ESE,113,7.0,8.0,-999,0.02,,,-99.99,,2013-06-07 05:14:00,
2013-06-07 00:19:00,59.0,-99.9,0.00,ESE,102,7.0,9.0,-999,0.02,,,-99.99,,2013-06-07 05:19:00,
2013-06-07 00:24:00,58.0,-99.9,0.00,SE,124,7.0,8.0,-999,0.02,,,-99.99,,2013-06-07 05:24:00,
2013-06-07 00:29:00,58.0,-99.9,0.00,SE,125,6.0,7.0,-999,0.02,,,-99.99,,2013-06-07 05:29:00,
2013-06-07 00:34:00,57.0,-99.9,0.00,ESE,118,6.0,7.0,-999,0.02,,,-99.99,,2013-06-07 05:34:00,
2013-06-07 00:39:00,56.0,-99.9,0.00,ESE,121,5.0,6.0,-999,0.02,,,-99.99,,2013-06-07 05:39:00,
2013-06-07 00:44:00,57.0,-99.9,0.00,ESE,116,5.0,7.0,-999,0.02,,,-99.99,,2013-06-07 05:44:00,
2013-06-07 00:49:00,57.0,-99.9,0.00,ESE,120,6.0,7.0,-999,0.02,,,-99.99,,2013-06-07 05:49:00,
2013-06-07 00:54:00,57.0,-99.9,0.00,ESE,117,6.0,7.0,-999,0.02,,,-99.99,,2013-06-07 05:54:00,
2013-06-07 00:59:00,57.0,-99.9,0.00,ESE,118,6.0,7.0,-999,0.02,,,-99.99,,2013-06-07 05:59:00,
2013-06-07 01:04:00,58.0,-99.9,0.00,SE,135,7.0,8.0,-999,0.02,,,-99.99,,2013-06-07 06:04:00,
2013-06-07 01:09:00,58.0,-99.9,0.00,ESE,111,8.0,9.0,-999,0.02,,,-99.99,,2013-06-07 06:09:00,
2013-06-07 01:14:00,57.0,-99.9,0.00,ESE,113,7.0,8.0,-999,0.02,,,-99.99,,2013-06-07 06:14:00,
2013-06-07 01:19:00,56.0,-99.9,0.00,SE,138,6.0,7.0,-999,0.02,,,-99.99,,2013-06-07 06:19:00,
2013-06-07 01:24:00,57.0,-99.9,0.00,SE,125,7.0,8.0,-999,0.02,,,-99.99,,2013-06-07 06:24:00,
2013-06-07 01:29:00,57.0,-99.9,0.00,SE,125,7.0,8.0,-999,0.02,,,-99.99,,2013-06-07 06:29:00,
2013-06-07 01:34:00,57.0,-99.9,0.00,SE,131,7.0,8.0,-999,0.02,,,-99.99,,2013-06-07 06:34:00,
2013-06-07 01:39:00,57.0,-99.9,0.00,ESE,123,8.0,8.0,-999,0.02,,,-99.99,,2013-06-07 06:39:00,
2013-06-07 01:44:00,56.0,-99.9,0.00,SE,130,7.0,7.0,-999,0.02,,,-99.99,,2013-06-07 06:44:00,
2013-06-07 01:49:00,57.0,-99.9,0.00,ESE,111,8.0,9.0,-999,0.02,,,-99.99,,2013-06-07 06:49:00,
2013-06-07 01:54:00,56.0,-99.9,0.00,ESE,120,8.0,9.0,-999,0.02,,,-99.99,,2013-06-07 06:54:00,
2013-06-07 01:59:00,56.0,-99.9,0.00,SE,133,8.0,10.0,-999,0.02,,,-99.99,,2013-06-07 06:59:00,
2013-06-07 02:04:00,55.0,-99.9,0.00,SE,145,7.0,9.0,-999,0.02,,,-99.99,,2013-06-07 07:04:00,
2013-06-07 02:09:00,55.0,-99.9,0.00,SE,133,7.0,9.0,-999,0.02,,,-99.99,,2013-06-07 07:09:00,
2013-06-07 02:14:00,55.0,-99.9,0.00,SE,141,8.0,10.0,-999,0.02,,,-99.99,,2013-06-07 07:14:00,
2013-06-07 02:19:00,54.0,-99.9,0.00,SSE,158,6.0,7.0,-999,0.02,,,-99.99,,2013-06-07 07:19:00,
2013-06-07 02:24:00,53.0,-99.9,0.00,SSE,154,8.0,9.0,-999,0.02,,,-99.99,,2013-06-07 07:24:00,
2013-06-07 02:29:00,53.0,-99.9,0.00,South,173,8.0,9.0,-999,0.02,,,-99.99,,2013-06-07 07:29:00,
2013-06-07 02:34:00,53.0,-99.9,0.00,SSE,162,7.0,8.0,-999,0.02,,,-99.99,,2013-06-07 07:34:00,
2013-06-07 02:39:00,53.0,-99.9,0.00,SSE,165,7.0,8.0,-999,0.02,,,-99.99,,2013-06-07 07:39:00,
2013-06-07 02:44:00,53.0,-99.9,0.00,South,171,6.0,7.0,-999,0.02,,,-99.99,,2013-06-07 07:44:00,
2013-06-07 02:49:00,53.0,-99.9,0.00,SSE,161,7.0,8.0,-999,0.02,,,-99.99,,2013-06-07 07:49:00,
2013-06-07 02:54:00,53.0,-99.9,0.00,South,179,6.0,7.0,-999,0.02,,,-99.99,,2013-06-07 07:54:00,
2013-06-07 02:59:00,53.0,-99.9,0.00,South,183,6.0,7.0,-999,0.02,,,-99.99,,2013-06-07 07:59:00,
2013-06-07 03:04:00,53.0,-99.9,0.00,SSE,162,6.0,7.0,-999,0.02,,,-99.99,,2013-06-07 08:04:00,
2013-06-07 03:09:00,54.0,-99.9,0.00,South,176,6.0,7.0,-999,0.02,,,-99.99,,2013-06-07 08:09:00,
2013-06-07 03:14:00,54.0,-99.9,0.00,South,172,6.0,7.0,-999,0.02,,,-99.99,,2013-06-07 08:14:00,
2013-06-07 03:19:00,54.0,-99.9,0.00,South,172,6.0,7.0,-999,0.02,,,-99.99,,2013-06-07 08:19:00,
2013-06-07 03:24:00,54.0,-99.9,0.00,South,169,5.0,6.0,-999,0.02,,,-99.99,,2013-06-07 08:24:00,
2013-06-07 03:29:00,54.0,-99.9,0.00,South,171,6.0,8.0,-999,0.02,,,-99.99,,2013-06-07 08:29:00,
2013-06-07 03:34:00,54.0,-99.9,0.00,SSE,168,5.0,7.0,-999,0.02,,,-99.99,,2013-06-07 08:34:00,
2013-06-07 03:39:00,54.0,-99.9,0.00,SSE,164,6.0,7.0,-999,0.02,,,-99.99,,2013-06-07 08:39:00,
2013-06-07 03:44:00,55.0,-99.9,0.00,SSE,152,6.0,7.0,-999,0.02,,,-99.99,,2013-06-07 08:44:00,
2013-06-07 03:49:00,55.0,-99.9,0.00,SSE,155,6.0,7.0,-999,0.02,,,-99.99,,2013-06-07 08:49:00,
2013-06-07 03:54:00,55.0,-99.9,0.00,SSE,147,5.0,6.0,-999,0.02,,,-99.99,,2013-06-07 08:54:00,
2013-06-07 03:59:00,55.0,-99.9,0.00,SE,140,4.0,5.0,-999,0.02,,,-99.99,,2013-06-07 08:59:00,
2013-06-07 04:04:00,52.0,-99.9,0.00,ESE,120,2.0,3.0,-999,0.02,,,-99.99,,2013-06-07 09:04:00,
2013-06-07 04:09:00,52.0,-99.9,0.00,North,0,0.0,0.0,-999,0.02,,,-99.99,,2013-06-07 09:09:00,
2013-06-07 04:14:00,52.0,-99.9,0.00,North,0,0.0,0.0,-999,0.02,,,-99.99,,2013-06-07 09:14:00,
2013-06-07 04:19:00,52.0,-99.9,0.00,North,0,0.0,0.0,-999,0.02,,,-99.99,,2013-06-07 09:19:00,
2013-06-07 04:24:00,52.0,-99.9,0.00,North,0,0.0,0.0,-999,0.02,,,-99.99,,2013-06-07 09:24:00,
2013-06-07 04:29:00,51.0,-99.9,0.00,North,0,0.0,0.0,-999,0.02,,,-99.99,,2013-06-07 09:29:00,
2013-06-07 04:34:00,51.0,-99.9,0.00,NE,48,3.0,5.0,-999,0.02,,,-99.99,,2013-06-07 09:34:00,
2013-06-07 04:39:00,51.0,-99.9,0.00,North,0,0.0,0.0,-999,0.02,,,-99.99,,2013-06-07 09:39:00,
2013-06-07 04:44:00,51.0,-99.9,0.00,ENE,61,3.0,6.0,-999,0.02,,,-99.99,,2013-06-07 09:44:00,
2013-06-07 04:49:00,52.0,-99.9,0.00,ENE,59,5.0,5.0,-999,0.02,,,-99.99,,2013-06-07 09:49:00,
2013-06-07 04:54:00,51.0,-99.9,0.00,ENE,59,5.0,6.0,-999,0.02,,,-99.99,,2013-06-07 09:54:00,
2013-06-07 04:59:00,51.0,-99.9,0.00,ENE,59,5.0,6.0,-999,0.02,,,-99.99,,2013-06-07 09:59:00,
2013-06-07 05:04:00,51.0,-99.9,0.00,ENE,59,5.0,6.0,-999,0.02,,,-99.99,,2013-06-07 10:04:00,
2013-06-07 05:09:00,51.0,-99.9,0.00,ENE,65,5.0,6.0,-999,0.02,,,-99.99,,2013-06-07 10:09:00,
2013-06-07 05:14:00,51.0,-99.9,0.00,ENE,66,5.0,6.0,-999,0.02,,,-99.99,,2013-06-07 10:14:00,
2013-06-07 05:19:00,51.0,-99.9,0.00,ENE,65,5.0,6.0,-999,0.02,,,-99.99,,2013-06-07 10:19:00,
2013-06-07 05:24:00,51.0,-99.9,0.00,East,82,5.0,6.0,-999,0.02,,,-99.99,,2013-06-07 10:24:00,
2013-06-07 05:29:00,51.0,-99.9,0.00,ESE,113,5.0,5.0,-999,0.02,,,-99.99,,2013-06-07 10:29:00,
2013-06-07 05:34:00,51.0,-99.9,0.00,East,83,4.0,5.0,-999,0.02,,,-99.99,,2013-06-07 10:34:00,
2013-06-07 05:39:00,51.0,-99.9,0.00,East,93,5.0,5.0,-999,0.02,,,-99.99,,2013-06-07 10:39:00,
2013-06-07 05:44:00,51.0,-99.9,0.00,East,92,4.0,5.0,-999,0.02,,,-99.99,,2013-06-07 10:44:00,
2013-06-07 05:49:00,51.0,-99.9,0.00,East,82,4.0,4.0,-999,0.02,,,-99.99,,2013-06-07 10:49:00,
2013-06-07 05:54:00,52.0,-99.9,0.00,North,0,0.0,0.0,-999,0.02,,,-99.99,,2013-06-07 10:54:00,
2013-06-07 05:59:00,52.0,-99.9,0.00,North,0,0.0,0.0,-999,0.02,,,-99.99,,2013-06-07 10:59:00,
2013-06-07 06:04:00,52.0,-99.9,0.00,North,0,0.0,0.0,-999,0.02,,,-99.99,,2013-06-07 11:04:00,
2013-06-07 06:09:00,52.0,-99.9,0.00,North,0,0.0,0.0,-999,0.02,,,-99.99,,2013-06-07 11:09:00,
2013-06-07 06:14:00,52.0,-99.9,0.00,North,0,0.0,0.0,-999,0.02,,,-99.99,,2013-06-07 11:14:00,
2013-06-07 06:19:00,52.0,-99.9,0.00,East,80,5.0,6.0,-999,0.02,,,-99.99,,2013-06-07 11:19:00,
2013-06-07 06:24:00,52.0,-99.9,0.00,ESE,107,6.0,7.0,-999,0.02,,,-99.99,,2013-06-07 11:24:00,
2013-06-07 06:29:00,52.0,-99.9,0.00,ESE,111,5.0,6.0,-999,0.02,,,-99.99,,2013-06-07 11:29:00,
2013-06-07 06:34:00,52.0,-99.9,0.00,East,89,4.0,4.0,-999,0.02,,,-99.99,,2013-06-07 11:34:00,
2013-06-07 06:39:00,51.0,-99.9,0.00,North,0,0.0,0.0,-999,0.02,,,-99.99,,2013-06-07 11:39:00,
2013-06-07 06:44:00,51.0,-99.9,0.00,North,0,0.0,0.0,-999,0.02,,,-99.99,,2013-06-07 11:44:00,
2013-06-07 06:49:00,51.0,-99.9,0.00,North,0,0.0,0.0,-999,0.02,,,-99.99,,2013-06-07 11:49:00,
2013-06-07 06:54:00,51.0,-99.9,0.00,North,0,0.0,0.0,-999,0.02,,,-99.99,,2013-06-07 11:54:00,
2013-06-07 06:59:00,51.0,-99.9,0.00,North,0,0.0,0.0,-999,0.00,,,-99.99,,2013-06-07 11:59:00,
2013-06-07 07:04:00,52.0,-99.9,0.00,North,0,0.0,0.0,-999,0.00,,,-99.99,,2013-06-07 12:04:00,
2013-06-07 07:09:00,53.0,-99.9,0.00,North,0,0.0,0.0,-999,0.00,,,-99.99,,2013-06-07 12:09:00,
2013-06-07 07:14:00,53.0,-99.9,0.00,North,0,0.0,0.0,-999,0.00,,,-99.99,,2013-06-07 12:14:00,
2013-06-07 07:19:00,53.0,-99.9,0.00,North,0,0.0,0.0,-999,0.00,,,-99.99,,2013-06-07 12:19:00,
2013-06-07 07:24:00,53.0,-99.9,0.00,ENE,71,4.0,4.0,-999,0.00,,,-99.99,,2013-06-07 12:24:00,
2013-06-07 07:29:00,53.0,-99.9,0.00,North,0,0.0,0.0,-999,0.00,,,-99.99,,2013-06-07 12:29:00,
2013-06-07 07:34:00,54.0,-99.9,0.00,North,0,0.0,0.0,-999,0.00,,,-99.99,,2013-06-07 12:34:00,
2013-06-07 07:39:00,55.0,-99.9,0.00,ENE,69,4.0,5.0,-999,0.00,,,-99.99,,2013-06-07 12:39:00,
2013-06-07 07:44:00,55.0,-99.9,0.00,ENE,63,4.0,5.0,-999,0.00,,,-99.99,,2013-06-07 12:44:00,
2013-06-07 07:49:00,55.0,-99.9,0.00,East,97,4.0,5.0,-999,0.00,,,-99.99,,2013-06-07 12:49:00,
2013-06-07 07:54:00,55.0,-99.9,0.00,East,99,5.0,6.0,-999,0.00,,,-99.99,,2013-06-07 12:54:00,
2013-06-07 07:59:00,56.0,-99.9,0.00,ENE,62,4.0,5.0,-999,0.00,,,-99.99,,2013-06-07 12:59:00,
2013-06-07 08:04:00,56.0,-99.9,0.00,ESE,114,2.0,5.0,-999,0.00,,,-99.99,,2013-06-07 13:04:00,
2013-06-07 08:09:00,57.0,-99.9,0.00,ESE,114,4.0,6.0,-999,0.00,,,-99.99,,2013-06-07 13:09:00,
2013-06-07 08:14:00,57.0,-99.9,0.00,East,99,4.0,5.0,-999,0.00,,,-99.99,,2013-06-07 13:14:00,
2013-06-07 08:19:00,58.0,-99.9,0.00,East,94,5.0,6.0,-999,0.00,,,-99.99,,2013-06-07 13:19:00,
2013-06-07 08:24:00,58.0,-99.9,0.00,East,100,4.0,5.0,-999,0.00,,,-99.99,,2013-06-07 13:24:00,
2013-06-07 08:29:00,59.0,-99.9,0.00,ESE,102,2.0,4.0,-999,0.00,,,-99.99,,2013-06-07 13:29:00,
2013-06-07 08:34:00,60.0,-99.9,0.00,East,99,4.0,6.0,-999,0.00,,,-99.99,,2013-06-07 13:34:00,
2013-06-07 08:39:00,60.0,-99.9,0.00,East,90,5.0,6.0,-999,0.00,,,-99.99,,2013-06-07 13:39:00,
2013-06-07 08:44:00,61.0,-99.9,0.00,ESE,111,2.0,6.0,-999,0.00,,,-99.99,,2013-06-07 13:44:00,
2013-06-07 08:49:00,61.0,-99.9,0.00,East,92,4.0,5.0,-999,0.00,,,-99.99,,2013-06-07 13:49:00,
2013-06-07 08:54:00,61.0,-99.9,0.00,ESE,110,6.0,7.0,-999,0.00,,,-99.99,,2013-06-07 13:54:00,
2013-06-07 08:59:00,62.0,-99.9,0.00,East,94,6.0,6.0,-999,0.00,,,-99.99,,2013-06-07 13:59:00,
2013-06-07 09:04:00,63.0,-99.9,0.00,ESE,107,7.0,8.0,-999,0.00,,,-99.99,,2013-06-07 14:04:00,
2013-06-07 09:09:00,64.0,-99.9,0.00,ESE,114,7.0,9.0,-999,0.00,,,-99.99,,2013-06-07 14:09:00,
2013-06-07 09:14:00,63.0,-99.9,0.00,ESE,116,8.0,10.0,-999,0.00,,,-99.99,,2013-06-07 14:14:00,
2013-06-07 09:19:00,64.0,-99.9,0.00,ESE,102,7.0,9.0,-999,0.00,,,-99.99,,2013-06-07 14:19:00,
2013-06-07 09:24:00,64.0,-99.9,0.00,SE,125,7.0,9.0,-999,0.00,,,-99.99,,2013-06-07 14:24:00,
2013-06-07 09:29:00,65.0,-99.9,0.00,ESE,121,9.0,11.0,-999,0.00,,,-99.99,,2013-06-07 14:29:00,
2013-06-07 09:34:00,66.0,-99.9,0.00,SE,130,7.0,9.0,-999,0.00,,,-99.99,,2013-06-07 14:34:00,
2013-06-07 09:39:00,66.0,-99.9,0.00,SE,130,8.0,9.0,-999,0.00,,,-99.99,,2013-06-07 14:39:00,
2013-06-07 09:44:00,66.0,-99.9,0.00,SE,135,7.0,10.0,-999,0.00,,,-99.99,,2013-06-07 14:44:00,
2013-06-07 09:49:00,67.0,-99.9,0.00,SE,128,9.0,10.0,-999,0.00,,,-99.99,,2013-06-07 14:49:00,
2013-06-07 09:54:00,67.0,-99.9,0.00,SE,142,10.0,12.0,-999,0.00,,,-99.99,,2013-06-07 14:54:00,
2013-06-07 09:59:00,68.0,-99.9,0.00,SE,144,8.0,12.0,-999,0.00,,,-99.99,,2013-06-07 14:59:00,
2013-06-07 10:04:00,68.0,-99.9,0.00,South,169,9.0,11.0,-999,0.00,,,-99.99,,2013-06-07 15:04:00,
2013-06-07 10:09:00,68.0,-99.9,0.00,SSE,149,9.0,10.0,-999,0.00,,,-99.99,,2013-06-07 15:09:00,
2013-06-07 10:14:00,68.0,-99.9,0.00,South,169,7.0,10.0,-999,0.00,,,-99.99,,2013-06-07 15:14:00,
2013-06-07 10:19:00,68.0,-99.9,0.00,SSE,152,8.0,10.0,-999,0.00,,,-99.99,,2013-06-07 15:19:00,
2013-06-07 10:24:00,68.0,-99.9,0.00,South,169,9.0,10.0,-999,0.00,,,-99.99,,2013-06-07 15:24:00,
2013-06-07 10:29:00,69.0,-99.9,0.00,SSE,149,7.0,10.0,-999,0.00,,,-99.99,,2013-06-07 15:29:00,
2013-06-07 10:34:00,69.0,-99.9,0.00,South,172,10.0,11.0,-999,0.00,,,-99.99,,2013-06-07 15:34:00,
2013-06-07 10:39:00,69.0,-99.9,0.00,SSE,164,8.0,11.0,-999,0.00,,,-99.99,,2013-06-07 15:39:00,
2013-06-07 10:44:00,69.0,-99.9,0.00,SSE,168,10.0,12.0,-999,0.00,,,-99.99,,2013-06-07 15:44:00,
2013-06-07 10:49:00,69.0,-99.9,0.00,SSE,158,7.0,9.0,-999,0.00,,,-99.99,,2013-06-07 15:49:00,
2013-06-07 10:54:00,71.0,-99.9,0.00,SSW,204,9.0,11.0,-999,0.00,,,-99.99,,2013-06-07 15:54:00,
2013-06-07 11:04:00,70.0,-99.9,0.00,SSE,154,11.0,13.0,-999,0.00,,,-99.99,,2013-06-07 16:04:00,
2013-06-07 11:09:00,71.0,-99.9,0.00,SSE,157,11.0,13.0,-999,0.00,,,-99.99,,2013-06-07 16:09:00,
2013-06-07 11:14:00,71.0,-99.9,0.00,SSE,157,10.0,12.0,-999,0.00,,,-99.99,,2013-06-07 16:14:00,
2013-06-07 11:19:00,71.0,-99.9,0.00,South,178,10.0,13.0,-999,0.00,,,-99.99,,2013-06-07 16:19:00,
2013-06-07 11:24:00,71.0,-99.9,0.00,SSE,159,10.0,12.0,-999,0.00,,,-99.99,,2013-06-07 16:24:00,
2013-06-07 11:29:00,72.0,-99.9,0.00,SSE,152,8.0,10.0,-999,0.00,,,-99.99,,2013-06-07 16:29:00,
2013-06-07 11:34:00,71.0,-99.9,0.00,SSE,152,9.0,13.0,-999,0.00,,,-99.99,,2013-06-07 16:34:00,
2013-06-07 11:39:00,71.0,-99.9,0.00,East,100,9.0,12.0,-999,0.00,,,-99.99,,2013-06-07 16:39:00,
2013-06-07 11:44:00,72.0,-99.9,0.00,SSE,149,10.0,13.0,-999,0.00,,,-99.99,,2013-06-07 16:44:00,
2013-06-07 11:54:00,72.0,-99.9,0.00,SE,135,6.0,9.0,-999,0.00,,,-99.99,,2013-06-07 16:54:00,
2013-06-07 11:59:00,72.0,-99.9,0.00,ESE,106,7.0,10.0,-999,0.00,,,-99.99,,2013-06-07 16:59:00,
2013-06-07 12:04:00,73.0,-99.9,0.00,SSE,148,8.0,10.0,-999,0.00,,,-99.99,,2013-06-07 17:04:00,
2013-06-07 12:09:00,73.0,-99.9,0.00,SSW,196,9.0,12.0,-999,0.00,,,-99.99,,2013-06-07 17:09:00,
2013-06-07 12:14:00,73.0,-99.9,0.00,SSW,200,7.0,9.0,-999,0.00,,,-99.99,,2013-06-07 17:14:00,
2013-06-07 12:19:00,73.0,-99.9,0.00,SSW,195,4.0,7.0,-999,0.00,,,-99.99,,2013-06-07 17:19:00,
2013-06-07 12:24:00,74.0,-99.9,0.00,South,182,9.0,11.0,-999,0.00,,,-99.99,,2013-06-07 17:24:00,
2013-06-07 12:29:00,73.0,-99.9,0.00,South,171,8.0,10.0,-999,0.00,,,-99.99,,2013-06-07 17:29:00,
2013-06-07 12:34:00,73.0,-99.9,0.00,SSW,200,6.0,8.0,-999,0.00,,,-99.99,,2013-06-07 17:34:00,
2013-06-07 12:39:00,74.0,-99.9,0.00,North,0,0.0,0.0,-999,0.00,,,-99.99,,2013-06-07 17:39:00,
2013-06-07 12:44:00,74.0,-99.9,0.00,South,188,9.0,11.0,-999,0.00,,,-99.99,,2013-06-07 17:44:00,
2013-06-07 12:49:00,74.0,-99.9,0.00,SSW,202,9.0,13.0,-999,0.00,,,-99.99,,2013-06-07 17:49:00,
2013-06-07 12:54:00,75.0,-99.9,0.00,SE,137,10.0,13.0,-999,0.00,,,-99.99,,2013-06-07 17:54:00,
2013-06-07 12:59:00,74.0,-99.9,0.00,South,175,11.0,13.0,-999,0.00,,,-99.99,,2013-06-07 17:59:00,
2013-06-07 13:09:00,75.0,-99.9,0.00,ESE,104,9.0,11.0,-999,0.00,,,-99.99,,2013-06-07 18:09:00,
2013-06-07 13:19:00,74.0,-99.9,0.00,SSE,162,8.0,10.0,-999,0.00,,,-99.99,,2013-06-07 18:19:00,
2013-06-07 13:24:00,76.0,-99.9,0.00,SSE,166,4.0,8.0,-999,0.00,,,-99.99,,2013-06-07 18:24:00,
2013-06-07 13:29:00,75.0,-99.9,0.00,ESE,118,11.0,12.0,-999,0.00,,,-99.99,,2013-06-07 18:29:00,
2013-06-07 13:34:00,76.0,-99.9,0.00,SE,140,10.0,12.0,-999,0.00,,,-99.99,,2013-06-07 18:34:00,
2013-06-07 13:39:00,75.0,-99.9,0.00,SE,141,11.0,12.0,-999,0.00,,,-99.99,,2013-06-07 18:39:00,
2013-06-07 13:44:00,76.0,-99.9,0.00,ESE,121,6.0,9.0,-999,0.00,,,-99.99,,2013-06-07 18:44:00,
2013-06-07 13:49:00,76.0,-99.9,0.00,East,99,9.0,11.0,-999,0.00,,,-99.99,,2013-06-07 18:49:00,
2013-06-07 13:54:00,76.0,-99.9,0.00,SE,130,9.0,10.0,-999,0.00,,,-99.99,,2013-06-07 18:54:00,
2013-06-07 13:59:00,76.0,-99.9,0.00,ESE,116,5.0,8.0,-999,0.00,,,-99.99,,2013-06-07 18:59:00,
2013-06-07 14:04:00,76.0,-99.9,0.00,ESE,114,7.0,9.0,-999,0.00,,,-99.99,,2013-06-07 19:04:00,
2013-06-07 14:14:00,76.0,-99.9,0.00,SSE,154,6.0,8.0,-999,0.00,,,-99.99,,2013-06-07 19:14:00,
2013-06-07 14:19:00,76.0,-99.9,0.00,SSE,151,8.0,10.0,-999,0.00,,,-99.99,,2013-06-07 19:19:00,
2013-06-07 14:29:00,77.0,-99.9,0.00,ESE,120,10.0,12.0,-999,0.00,,,-99.99,,2013-06-07 19:29:00,
2013-06-07 14:34:00,77.0,-99.9,0.00,ESE,104,9.0,11.0,-999,0.00,,,-99.99,,2013-06-07 19:34:00,
2013-06-07 14:39:00,77.0,-99.9,0.00,ESE,103,13.0,17.0,-999,0.00,,,-99.99,,2013-06-07 19:39:00,
2013-06-07 14:44:00,77.0,-99.9,0.00,SE,144,7.0,9.0,-999,0.00,,,-99.99,,2013-06-07 19:44:00,
2013-06-07 14:49:00,77.0,-99.9,0.00,SSE,148,8.0,10.0,-999,0.00,,,-99.99,,2013-06-07 19:49:00,
2013-06-07 14:54:00,77.0,-99.9,0.00,SSE,162,9.0,12.0,-999,0.00,,,-99.99,,2013-06-07 19:54:00,
2013-06-07 14:59:00,78.0,-99.9,0.00,SE,133,3.0,6.0,-999,0.00,,,-99.99,,2013-06-07 19:59:00,
2013-06-07 15:09:00,78.0,-99.9,0.00,ESE,114,9.0,12.0,-999,0.00,,,-99.99,,2013-06-07 20:09:00,
2013-06-07 15:14:00,77.0,-99.9,0.00,ESE,113,10.0,12.0,-999,0.00,,,-99.99,,2013-06-07 20:14:00,
2013-06-07 15:24:00,76.0,-99.9,0.00,SSE,161,5.0,8.0,-999,0.00,,,-99.99,,2013-06-07 20:24:00,
2013-06-07 15:29:00,77.0,-99.9,0.00,ESE,113,13.0,15.0,-999,0.00,,,-99.99,,2013-06-07 20:29:00,
2013-06-07 15:34:00,77.0,-99.9,0.00,ESE,107,13.0,16.0,-999,0.00,,,-99.99,,2013-06-07 20:34:00,
2013-06-07 15:44:00,77.0,-99.9,0.00,SE,135,10.0,12.0,-999,0.00,,,-99.99,,2013-06-07 20:44:00,
2013-06-07 15:54:00,78.0,-99.9,0.00,East,99,11.0,15.0,-999,0.00,,,-99.99,,2013-06-07 20:54:00,
2013-06-07 15:59:00,78.0,-99.9,0.00,ESE,117,12.0,13.0,-999,0.00,,,-99.99,,2013-06-07 20:59:00,
2013-06-07 16:04:00,78.0,-99.9,0.00,SE,124,14.0,16.0,-999,0.00,,,-99.99,,2013-06-07 21:04:00,
2013-06-07 16:09:00,79.0,-99.9,0.00,SE,140,12.0,15.0,-999,0.00,,,-99.99,,2013-06-07 21:09:00,
2013-06-07 16:14:00,76.0,-99.9,0.00,SE,134,10.0,12.0,-999,0.00,,,-99.99,,2013-06-07 21:14:00,
2013-06-07 16:19:00,78.0,-99.9,0.00,ESE,117,10.0,12.0,-999,0.00,,,-99.99,,2013-06-07 21:19:00,
2013-06-07 16:24:00,78.0,-99.9,0.00,ESE,113,13.0,17.0,-999,0.00,,,-99.99,,2013-06-07 21:24:00,
2013-06-07 16:29:00,78.0,-99.9,0.00,East,92,8.0,10.0,-999,0.00,,,-99.99,,2013-06-07 21:29:00,
2013-06-07 16:34:00,79.0,-99.9,0.00,ESE,111,9.0,11.0,-999,0.00,,,-99.99,,2013-06-07 21:34:00,
2013-06-07 16:39:00,78.0,-99.9,0.00,East,100,9.0,17.0,-999,0.00,,,-99.99,,2013-06-07 21:39:00,
2013-06-07 16:44:00,78.0,-99.9,0.00,SE,135,7.0,9.0,-999,0.00,,,-99.99,,2013-06-07 21:44:00,
2013-06-07 16:49:00,79.0,-99.9,0.00,ESE,123,9.0,12.0,-999,0.00,,,-99.99,,2013-06-07 21:49:00,
2013-06-07 16:54:00,79.0,-99.9,0.00,SE,141,10.0,13.0,-999,0.00,,,-99.99,,2013-06-07 21:54:00,
2013-06-07 16:59:00,78.0,-99.9,0.00,SE,140,11.0,13.0,-999,0.00,,,-99.99,,2013-06-07 21:59:00,
2013-06-07 17:09:00,78.0,-99.9,0.00,SSE,165,8.0,10.0,-999,0.00,,,-99.99,,2013-06-07 22:09:00,
2013-06-07 17:14:00,79.0,-99.9,0.00,SE,127,10.0,12.0,-999,0.00,,,-99.99,,2013-06-07 22:14:00,
2013-06-07 17:19:00,79.0,-99.9,0.00,ESE,121,9.0,11.0,-999,0.00,,,-99.99,,2013-06-07 22:19:00,
2013-06-07 17:24:00,78.0,-99.9,0.00,SSE,164,12.0,15.0,-999,0.00,,,-99.99,,2013-06-07 22:24:00,
2013-06-07 17:29:00,79.0,-99.9,0.00,SE,138,6.0,9.0,-999,0.00,,,-99.99,,2013-06-07 22:29:00,
2013-06-07 17:34:00,79.0,-99.9,0.00,SE,124,9.0,13.0,-999,0.00,,,-99.99,,2013-06-07 22:34:00,
2013-06-07 17:39:00,79.0,-99.9,0.00,ESE,123,13.0,17.0,-999,0.00,,,-99.99,,2013-06-07 22:39:00,
2013-06-07 17:44:00,79.0,-99.9,0.00,East,97,13.0,17.0,-999,0.00,,,-99.99,,2013-06-07 22:44:00,
2013-06-07 17:49:00,79.0,-99.9,0.00,SSE,147,10.0,13.0,-999,0.00,,,-99.99,,2013-06-07 22:49:00,
2013-06-07 17:54:00,79.0,-99.9,0.00,SSE,162,10.0,12.0,-999,0.00,,,-99.99,,2013-06-07 22:54:00,
2013-06-07 17:59:00,78.0,-99.9,0.00,SSE,164,12.0,15.0,-999,0.00,,,-99.99,,2013-06-07 22:59:00,
2013-06-07 18:04:00,79.0,-99.9,0.00,SE,140,13.0,16.0,-999,0.00,,,-99.99,,2013-06-07 23:04:00,
2013-06-07 18:09:00,79.0,-99.9,0.00,SE,141,12.0,14.0,-999,0.00,,,-99.99,,2013-06-07 23:09:00,
2013-06-07 18:14:00,79.0,-99.9,0.00,SE,137,13.0,14.0,-999,0.00,,,-99.99,,2013-06-07 23:14:00,
2013-06-07 18:19:00,79.0,-99.9,0.00,SE,142,12.0,15.0,-999,0.00,,,-99.99,,2013-06-07 23:19:00,
2013-06-07 18:24:00,79.0,-99.9,0.00,SE,141,12.0,14.0,-999,0.00,,,-99.99,,2013-06-07 23:24:00,
2013-06-07 18:29:00,79.0,-99.9,0.00,SSE,168,12.0,14.0,-999,0.00,,,-99.99,,2013-06-07 23:29:00,
2013-06-07 18:34:00,79.0,-99.9,0.00,SSE,155,11.0,13.0,-999,0.00,,,-99.99,,2013-06-07 23:34:00,
2013-06-07 18:44:00,78.0,-99.9,0.00,SE,125,13.0,16.0,-999,0.00,,,-99.99,,2013-06-07 23:44:00,
2013-06-07 18:49:00,79.0,-99.9,0.00,SE,128,13.0,16.0,-999,0.00,,,-99.99,,2013-06-07 23:49:00,
2013-06-07 18:54:00,78.0,-99.9,0.00,SE,131,13.0,17.0,-999,0.00,,,-99.99,,2013-06-07 23:54:00,
2013-06-07 18:59:00,78.0,-99.9,0.00,ESE,116,13.0,15.0,-999,0.00,,,-99.99,,2013-06-07 23:59:00,
2013-06-07 19:04:00,78.0,-99.9,0.00,East,96,12.0,15.0,-999,0.00,,,-99.99,,2013-06-08 00:04:00,
2013-06-07 19:14:00,78.0,-99.9,0.00,ESE,111,12.0,15.0,-999,0.00,,,-99.99,,2013-06-08 00:14:00,
2013-06-07 19:19:00,78.0,-99.9,0.00,ESE,109,14.0,16.0,-999,0.00,,,-99.99,,2013-06-08 00:19:00,
2013-06-07 19:24:00,78.0,-99.9,0.00,ESE,120,12.0,15.0,-999,0.00,,,-99.99,,2013-06-08 00:24:00,
2013-06-07 19:34:00,77.0,-99.9,0.00,ESE,110,12.0,14.0,-999,0.00,,,-99.99,,2013-06-08 00:34:00,
2013-06-07 19:39:00,77.0,-99.9,0.00,ESE,109,13.0,17.0,-999,0.00,,,-99.99,,2013-06-08 00:39:00,
2013-06-07 19:44:00,77.0,-99.9,0.00,East,89,14.0,16.0,-999,0.00,,,-99.99,,2013-06-08 00:44:00,
2013-06-07 19:49:00,76.0,-99.9,0.00,East,97,14.0,15.0,-999,0.00,,,-99.99,,2013-06-08 00:49:00,
2013-06-07 19:54:00,76.0,-99.9,0.00,ESE,102,14.0,17.0,-999,0.00,,,-99.99,,2013-06-08 00:54:00,
2013-06-07 19:59:00,76.0,-99.9,0.00,ESE,107,14.0,17.0,-999,0.00,,,-99.99,,2013-06-08 00:59:00,
2013-06-07 20:04:00,75.0,-99.9,0.00,ESE,109,13.0,16.0,-999,0.00,,,-99.99,,2013-06-08 01:04:00,
2013-06-07 20:09:00,75.0,-99.9,0.00,ESE,111,13.0,16.0,-999,0.00,,,-99.99,,2013-06-08 01:09:00,
2013-06-07 20:14:00,74.0,-99.9,0.00,East,99,13.0,17.0,-999,0.00,,,-99.99,,2013-06-08 01:14:00,
2013-06-07 20:24:00,73.0,-99.9,0.00,East,96,15.0,19.0,-999,0.00,,,-99.99,,2013-06-08 01:24:00,
2013-06-07 20:29:00,73.0,-99.9,0.00,East,82,15.0,19.0,-999,0.00,,,-99.99,,2013-06-08 01:29:00,
2013-06-07 20:34:00,72.0,-99.9,0.00,East,86,15.0,18.0,-999,0.00,,,-99.99,,2013-06-08 01:34:00,
2013-06-07 20:39:00,72.0,-99.9,0.00,East,92,13.0,16.0,-999,0.00,,,-99.99,,2013-06-08 01:39:00,
2013-06-07 20:49:00,71.0,-99.9,0.00,ENE,68,14.0,16.0,-999,0.00,,,-99.99,,2013-06-08 01:49:00,
2013-06-07 20:54:00,71.0,-99.9,0.00,East,99,14.0,15.0,-999,0.00,,,-99.99,,2013-06-08 01:54:00,
2013-06-07 20:59:00,70.0,-99.9,0.00,ENE,76,12.0,14.0,-999,0.00,,,-99.99,,2013-06-08 01:59:00,
2013-06-07 21:04:00,69.0,-99.9,0.00,East,79,11.0,12.0,-999,0.00,,,-99.99,,2013-06-08 02:04:00,
2013-06-07 21:09:00,69.0,-99.9,0.00,East,92,11.0,13.0,-999,0.00,,,-99.99,,2013-06-08 02:09:00,
2013-06-07 21:14:00,69.0,-99.9,0.00,East,85,11.0,14.0,-999,0.00,,,-99.99,,2013-06-08 02:14:00,
2013-06-07 21:19:00,69.0,-99.9,0.00,East,93,13.0,16.0,-999,0.00,,,-99.99,,2013-06-08 02:19:00,
2013-06-07 21:24:00,69.0,-99.9,0.00,East,93,14.0,16.0,-999,0.00,,,-99.99,,2013-06-08 02:24:00,
2013-06-07 21:29:00,69.0,-99.9,0.00,East,100,14.0,17.0,-999,0.00,,,-99.99,,2013-06-08 02:29:00,
2013-06-07 21:34:00,68.0,-99.9,0.00,East,100,13.0,16.0,-999,0.00,,,-99.99,,2013-06-08 02:34:00,
2013-06-07 21:39:00,68.0,-99.9,0.00,East,93,13.0,15.0,-999,0.00,,,-99.99,,2013-06-08 02:39:00,
2013-06-07 21:44:00,68.0,-99.9,0.00,East,93,13.0,16.0,-999,0.00,,,-99.99,,2013-06-08 02:44:00,
2013-06-07 21:49:00,67.0,-99.9,0.00,East,96,13.0,17.0,-999,0.00,,,-99.99,,2013-06-08 02:49:00,
2013-06-07 21:54:00,67.0,-99.9,0.00,ENE,76,12.0,15.0,-999,0.00,,,-99.99,,2013-06-08 02:54:00,
2013-06-07 21:59:00,67.0,-99.9,0.00,East,87,13.0,16.0,-999,0.00,,,-99.99,,2013-06-08 02:59:00,
2013-06-07 22:09:00,66.0,-99.9,0.00,East,99,13.0,15.0,-999,0.00,,,-99.99,,2013-06-08 03:09:00,
2013-06-07 22:19:00,66.0,-99.9,0.00,ESE,116,13.0,16.0,-999,0.00,,,-99.99,,2013-06-08 03:19:00,
2013-06-07 22:24:00,66.0,-99.9,0.00,ESE,107,14.0,16.0,-999,0.00,,,-99.99,,2013-06-08 03:24:00,
2013-06-07 22:29:00,66.0,-99.9,0.00,ESE,114,14.0,16.0,-999,0.00,,,-99.99,,2013-06-08 03:29:00,
2013-06-07 22:34:00,66.0,-99.9,0.00,East,94,14.0,17.0,-999,0.00,,,-99.99,,2013-06-08 03:34:00,
2013-06-07 22:39:00,66.0,-99.9,0.00,SE,128,14.0,17.0,-999,0.00,,,-99.99,,2013-06-08 03:39:00,
2013-06-07 22:44:00,66.0,-99.9,0.00,ESE,109,14.0,17.0,-999,0.00,,,-99.99,,2013-06-08 03:44:00,
2013-06-07 22:49:00,65.0,-99.9,0.00,ESE,104,13.0,16.0,-999,0.00,,,-99.99,,2013-06-08 03:49:00,
2013-06-07 22:54:00,65.0,-99.9,0.00,ESE,110,13.0,16.0,-999,0.00,,,-99.99,,2013-06-08 03:54:00,
2013-06-07 23:04:00,64.0,-99.9,0.00,ESE,116,12.0,14.0,-999,0.00,,,-99.99,,2013-06-08 04:04:00,
2013-06-07 23:09:00,64.0,-99.9,0.00,SE,124,11.0,13.0,-999,0.00,,,-99.99,,2013-06-08 04:09:00,
2013-06-07 23:14:00,64.0,-99.9,0.00,SE,127,12.0,15.0,-999,0.00,,,-99.99,,2013-06-08 04:14:00,
2013-06-07 23:19:00,65.0,-99.9,0.00,SE,133,12.0,16.0,-999,0.00,,,-99.99,,2013-06-08 04:19:00,
2013-06-07 23:24:00,65.0,-99.9,0.00,SE,128,12.0,15.0,-999,0.00,,,-99.99,,2013-06-08 04:24:00,
2013-06-07 23:29:00,64.0,-99.9,0.00,ESE,123,12.0,14.0,-999,0.00,,,-99.99,,2013-06-08 04:29:00,
2013-06-07 23:34:00,64.0,-99.9,0.00,SE,127,12.0,16.0,-999,0.00,,,-99.99,,2013-06-08 04:34:00,
2013-06-07 23:39:00,65.0,-99.9,0.00,SE,142,13.0,17.0,-999,0.00,,,-99.99,,2013-06-08 04:39:00,
2013-06-07 23:44:00,65.0,-99.9,0.00,SSE,147,13.0,15.0,-999,0.00,,,-99.99,,2013-06-08 04:44:00,
2013-06-07 23:49:00,65.0,-99.9,0.00,SSE,155,13.0,17.0,-999,0.00,,,-99.99,,2013-06-08 04:49:00,
2013-06-07 23:54:00,65.0,-99.9,0.00,SE,140,14.0,17.0,-999,0.00,,,-99.99,,2013-06-08 04:54:00,
2013-06-07 23:59:00,65.0,-99.9,0.00,SE,144,12.0,15.0,-999,0.00,,,-99.99,,2013-06-08 04:59:00,